createdAt,value
2018-05-07T00:02:10.793Z,13.70
2018-05-07T00:04:39.045Z,13.69
2018-05-07T00:07:09.194Z,13.72
2018-05-07T00:09:38.817Z,13.60
2018-05-07T00:12:08.551Z,13.64
2018-05-07T00:14:36.801Z,13.64
2018-05-07T00:17:06.086Z,13.62
2018-05-07T00:19:34.324Z,13.63
2018-05-07T00:22:03.376Z,13.53
2018-05-07T00:24:31.618Z,13.54
2018-05-07T00:27:01.126Z,13.47
2018-05-07T00:29:30.126Z,13.46
2018-05-07T00:31:58.995Z,13.47
2018-05-07T00:34:28.024Z,13.40
2018-05-07T00:36:56.282Z,13.40
2018-05-07T00:39:24.540Z,13.38
2018-05-07T00:41:53.560Z,13.33
2018-05-07T00:44:22.417Z,13.32
2018-05-07T00:46:51.450Z,13.29
2018-05-07T00:49:19.696Z,13.26
2018-05-07T00:51:48.719Z,13.18
2018-05-07T00:54:19.159Z,13.12
2018-05-07T00:56:48.073Z,13.11
2018-05-07T00:59:16.336Z,13.05
2018-05-07T01:01:44.590Z,13.01
2018-05-07T01:04:12.839Z,12.91
2018-05-07T01:06:41.864Z,12.93
2018-05-07T01:09:10.107Z,13.01
2018-05-07T01:11:39.030Z,12.91
2018-05-07T01:14:07.278Z,12.98
2018-05-07T01:16:36.255Z,12.95
2018-05-07T01:19:05.281Z,12.90
2018-05-07T01:21:34.049Z,12.79
2018-05-07T01:24:02.298Z,12.85
2018-05-07T01:26:30.557Z,12.72
2018-05-07T01:28:58.814Z,12.76
2018-05-07T01:31:27.287Z,12.79
2018-05-07T01:33:57.177Z,12.76
2018-05-07T01:36:25.417Z,12.74
2018-05-07T01:38:53.757Z,12.66
2018-05-07T01:41:22.994Z,12.56
2018-05-07T01:43:51.801Z,12.56
2018-05-07T01:46:20.815Z,12.51
2018-05-07T01:48:50.066Z,12.38
2018-05-07T01:51:18.312Z,12.40
2018-05-07T01:53:50.304Z,12.34
2018-05-07T01:56:18.548Z,12.28
2018-05-07T01:58:47.029Z,12.18
2018-05-07T02:01:15.278Z,12.21
2018-05-07T02:03:43.526Z,12.22
2018-05-07T02:06:11.776Z,12.16
2018-05-07T02:08:40.018Z,12.09
2018-05-07T02:11:10.751Z,12.11
2018-05-07T02:13:39.000Z,12.13
2018-05-07T02:16:12.566Z,12.11
2018-05-07T02:18:41.063Z,12.13
2018-05-07T02:21:09.309Z,12.09
2018-05-07T02:23:37.556Z,12.11
2018-05-07T02:26:06.985Z,12.10
2018-05-07T02:28:35.234Z,12.07
2018-05-07T02:31:03.495Z,12.04
2018-05-07T02:33:33.121Z,11.97
2018-05-07T02:36:01.371Z,11.98
2018-05-07T02:38:30.397Z,11.95
2018-05-07T02:40:58.632Z,11.92
2018-05-07T02:43:27.655Z,11.89
2018-05-07T02:45:55.903Z,11.83
2018-05-07T02:48:24.932Z,11.81
2018-05-07T02:50:54.736Z,11.82
2018-05-07T02:53:22.989Z,11.78
2018-05-07T02:55:52.094Z,11.73
2018-05-07T02:58:21.554Z,11.73
2018-05-07T03:00:49.802Z,11.68
2018-05-07T03:03:18.054Z,11.63
2018-05-07T03:05:46.309Z,11.55
2018-05-07T03:08:15.319Z,11.52
2018-05-07T03:10:43.578Z,11.55
2018-05-07T03:13:12.606Z,11.54
2018-05-07T03:15:40.848Z,11.56
2018-05-07T03:18:09.974Z,11.50
2018-05-07T03:20:38.219Z,11.42
2018-05-07T03:23:08.217Z,11.44
2018-05-07T03:25:37.030Z,11.47
2018-05-07T03:28:05.280Z,11.45
2018-05-07T03:30:33.540Z,11.41
2018-05-07T03:33:02.693Z,11.34
2018-05-07T03:35:30.939Z,11.35
2018-05-07T03:37:59.960Z,11.30
2018-05-07T03:40:28.294Z,11.31
2018-05-07T03:42:58.002Z,11.25
2018-05-07T03:45:26.235Z,11.22
2018-05-07T03:47:54.481Z,11.18
2018-05-07T03:50:24.486Z,11.15
2018-05-07T03:52:53.522Z,11.09
2018-05-07T03:55:22.926Z,11.12
2018-05-07T03:57:51.178Z,11.12
2018-05-07T04:00:19.416Z,11.20
2018-05-07T04:02:47.673Z,11.20
2018-05-07T04:05:16.748Z,11.15
2018-05-07T04:07:44.987Z,11.20
2018-05-07T04:10:13.233Z,11.18
2018-05-07T04:12:41.485Z,11.22
2018-05-07T04:15:09.734Z,11.24
2018-05-07T04:17:56.549Z,11.26
2018-05-07T04:20:45.532Z,11.28
2018-05-07T04:23:32.212Z,11.38
2018-05-07T04:26:01.177Z,11.36
2018-05-07T04:28:30.196Z,11.39
2018-05-07T04:30:58.449Z,11.38
2018-05-07T04:33:28.530Z,11.52
2018-05-07T04:35:56.771Z,11.56
2018-05-07T04:38:25.018Z,11.60
2018-05-07T04:40:54.021Z,11.69
2018-05-07T04:43:22.277Z,11.60
2018-05-07T04:45:51.289Z,11.58
2018-05-07T04:48:20.226Z,11.52
2018-05-07T04:50:50.704Z,11.59
2018-05-07T04:53:19.721Z,11.54
2018-05-07T04:55:47.973Z,11.62
2018-05-07T04:58:16.216Z,11.65
2018-05-07T05:00:45.644Z,11.70
2018-05-07T05:03:15.329Z,11.69
2018-05-07T05:05:43.583Z,11.65
2018-05-07T05:08:11.823Z,11.68
2018-05-07T05:10:40.081Z,11.72
2018-05-07T05:13:09.989Z,11.78
2018-05-07T05:15:39.000Z,11.88
2018-05-07T05:18:07.250Z,11.91
2018-05-07T05:20:36.264Z,11.91
2018-05-07T05:23:05.143Z,12.00
2018-05-07T05:25:34.179Z,12.02
2018-05-07T05:28:02.431Z,12.03
2018-05-07T05:30:30.690Z,12.08
2018-05-07T05:32:59.692Z,12.17
2018-05-07T05:35:27.949Z,12.21
2018-05-07T05:37:56.961Z,12.30
2018-05-07T05:40:25.213Z,12.26
2018-05-07T05:42:55.134Z,12.39
2018-05-07T05:45:24.147Z,12.46
2018-05-07T05:47:52.473Z,12.44
2018-05-07T05:50:21.245Z,12.53
2018-05-07T05:52:50.050Z,12.61
2018-05-07T05:55:18.960Z,12.72
2018-05-07T05:57:48.414Z,12.79
2018-05-07T06:00:16.662Z,12.80
2018-05-07T06:02:45.672Z,12.87
2018-05-07T06:05:14.451Z,12.85
2018-05-07T06:07:43.271Z,12.81
2018-05-07T06:10:13.398Z,12.93
2018-05-07T06:12:43.149Z,12.98
2018-05-07T06:15:11.376Z,13.07
2018-05-07T06:17:44.303Z,13.12
2018-05-07T06:20:12.553Z,13.30
2018-05-07T06:22:40.799Z,13.35
2018-05-07T06:25:09.049Z,13.45
2018-05-07T06:27:38.877Z,13.51
2018-05-07T06:30:07.123Z,13.54
2018-05-07T06:32:36.139Z,13.65
2018-05-07T06:35:04.388Z,13.79
2018-05-07T06:37:34.085Z,13.95
2018-05-07T06:40:02.333Z,13.90
2018-05-07T06:42:30.585Z,14.09
2018-05-07T06:44:58.848Z,14.23
2018-05-07T06:47:27.101Z,14.25
2018-05-07T06:49:56.121Z,14.44
2018-05-07T06:52:24.373Z,14.65
2018-05-07T06:54:53.395Z,14.57
2018-05-07T06:57:22.664Z,14.79
2018-05-07T06:59:51.691Z,14.83
2018-05-07T07:02:19.969Z,14.78
2018-05-07T07:04:48.218Z,15.08
2018-05-07T07:07:17.234Z,15.13
2018-05-07T07:09:45.490Z,15.35
2018-05-07T07:12:14.504Z,15.33
2018-05-07T07:14:43.692Z,15.38
2018-05-07T07:17:11.942Z,15.55
2018-05-07T07:19:40.961Z,15.72
2018-05-07T07:22:09.205Z,15.85
2018-05-07T07:24:37.460Z,16.07
2018-05-07T07:27:06.789Z,16.12
2018-05-07T07:29:35.029Z,16.18
2018-05-07T07:32:03.295Z,16.22
2018-05-07T07:34:31.542Z,16.39
2018-05-07T07:36:59.789Z,16.51
2018-05-07T07:39:28.837Z,16.29
2018-05-07T07:41:57.834Z,16.44
2018-05-07T07:44:26.086Z,16.69
2018-05-07T07:46:54.345Z,16.83
2018-05-07T07:49:23.643Z,16.69
2018-05-07T07:51:52.653Z,16.78
2018-05-07T07:54:20.897Z,16.85
2018-05-07T07:56:49.908Z,16.94
2018-05-07T07:59:18.186Z,16.97
2018-05-07T08:01:46.408Z,17.05
2018-05-07T08:04:15.293Z,17.25
2018-05-07T08:06:44.185Z,17.18
2018-05-07T08:09:12.429Z,16.99
2018-05-07T08:11:40.777Z,17.36
2018-05-07T08:14:09.777Z,17.55
2018-05-07T08:16:38.792Z,17.50
2018-05-07T08:19:07.578Z,17.42
2018-05-07T08:21:35.827Z,17.71
2018-05-07T08:24:05.898Z,17.76
2018-05-07T08:26:35.074Z,17.82
2018-05-07T08:29:03.325Z,17.76
2018-05-07T08:31:33.414Z,18.09
2018-05-07T08:34:02.505Z,18.01
2018-05-07T08:36:32.323Z,17.96
2018-05-07T08:39:01.423Z,18.20
2018-05-07T08:41:30.489Z,18.37
2018-05-07T08:43:58.732Z,18.34
2018-05-07T08:46:27.005Z,18.47
2018-05-07T08:48:56.258Z,18.24
2018-05-07T08:51:25.541Z,18.36
2018-05-07T08:53:54.009Z,18.78
2018-05-07T08:56:22.262Z,19.03
2018-05-07T08:58:51.380Z,19.17
2018-05-07T09:01:19.664Z,19.39
2018-05-07T09:03:48.103Z,19.19
2018-05-07T09:06:16.346Z,19.59
2018-05-07T09:08:44.592Z,19.84
2018-05-07T09:11:12.835Z,19.89
2018-05-07T09:13:41.110Z,19.92
2018-05-07T09:16:10.130Z,20.40
2018-05-07T09:18:38.376Z,20.50
2018-05-07T09:21:06.644Z,20.65
2018-05-07T09:23:35.108Z,20.83
2018-05-07T09:26:03.343Z,20.26
2018-05-07T09:28:31.604Z,20.40
2018-05-07T09:31:03.579Z,20.61
2018-05-07T09:33:31.851Z,20.62
2018-05-07T09:36:00.220Z,21.04
2018-05-07T09:38:28.456Z,20.79
2018-05-07T09:40:57.472Z,20.98
2018-05-07T09:43:25.731Z,21.15
2018-05-07T09:45:54.740Z,21.24
2018-05-07T09:48:24.148Z,21.23
2018-05-07T09:50:52.897Z,21.02
2018-05-07T09:53:21.680Z,21.09
2018-05-07T09:55:50.475Z,21.21
2018-05-07T09:58:19.481Z,21.62
2018-05-07T10:00:48.504Z,21.59
2018-05-07T10:03:16.756Z,22.14
2018-05-07T10:05:45.687Z,22.46
2018-05-07T10:08:14.975Z,21.90
2018-05-07T10:10:44.319Z,22.08
2018-05-07T10:13:13.329Z,22.17
2018-05-07T10:15:43.282Z,22.26
2018-05-07T10:18:12.077Z,21.80
2018-05-07T10:20:40.326Z,22.12
2018-05-07T10:23:08.577Z,22.09
2018-05-07T10:25:37.595Z,22.72
2018-05-07T10:28:05.857Z,22.66
2018-05-07T10:30:35.690Z,22.40
2018-05-07T10:33:03.938Z,22.39
2018-05-07T10:35:32.969Z,22.31
2018-05-07T10:38:01.226Z,22.11
2018-05-07T10:40:30.656Z,22.15
2018-05-07T10:42:58.909Z,22.05
2018-05-07T10:45:27.159Z,21.84
2018-05-07T10:47:56.186Z,21.97
2018-05-07T10:50:25.006Z,22.47
2018-05-07T10:52:53.264Z,22.34
2018-05-07T10:55:21.528Z,22.22
2018-05-07T10:57:49.781Z,22.32
2018-05-07T11:00:18.797Z,22.85
2018-05-07T11:02:47.596Z,23.82
2018-05-07T11:05:16.065Z,24.45
2018-05-07T11:07:44.313Z,24.80
2018-05-07T11:10:13.326Z,24.57
2018-05-07T11:12:41.855Z,24.59
2018-05-07T11:15:10.098Z,24.18
2018-05-07T11:17:39.430Z,24.67
2018-05-07T11:20:07.673Z,24.88
2018-05-07T11:22:35.940Z,24.76
2018-05-07T11:25:04.180Z,24.87
2018-05-07T11:27:34.221Z,24.44
2018-05-07T11:30:02.473Z,24.87
2018-05-07T11:32:31.485Z,24.83
2018-05-07T11:34:59.741Z,25.72
2018-05-07T11:37:28.761Z,26.14
2018-05-07T11:39:57.007Z,26.44
2018-05-07T11:42:27.211Z,25.99
2018-05-07T11:44:56.244Z,25.66
2018-05-07T11:47:24.535Z,25.72
2018-05-07T11:49:52.733Z,26.46
2018-05-07T11:52:20.975Z,26.51
2018-05-07T11:54:49.225Z,26.61
2018-05-07T11:57:18.228Z,26.43
2018-05-07T11:59:47.008Z,26.17
2018-05-07T12:02:16.568Z,26.54
2018-05-07T12:04:44.825Z,27.47
2018-05-07T12:07:13.071Z,26.74
2018-05-07T12:09:42.792Z,26.76
2018-05-07T12:12:11.040Z,25.98
2018-05-07T12:14:43.769Z,27.54
2018-05-07T12:17:12.018Z,26.97
2018-05-07T12:19:40.256Z,26.92
2018-05-07T12:22:08.518Z,27.22
2018-05-07T12:24:36.866Z,26.56
2018-05-07T12:27:05.116Z,27.19
2018-05-07T12:29:33.933Z,27.75
2018-05-07T12:32:02.178Z,27.87
2018-05-07T12:34:31.187Z,28.10
2018-05-07T12:36:59.436Z,28.04
2018-05-07T12:39:29.060Z,27.49
2018-05-07T12:41:57.313Z,27.04
2018-05-07T12:44:25.566Z,26.85
2018-05-07T12:46:53.907Z,27.39
2018-05-07T12:49:22.280Z,27.16
2018-05-07T12:51:51.138Z,27.18
2018-05-07T12:54:20.147Z,27.92
2018-05-07T12:56:52.220Z,29.20
2018-05-07T12:59:20.714Z,28.82
2018-05-07T13:01:49.267Z,28.02
2018-05-07T13:04:17.760Z,28.83
2018-05-07T13:06:46.186Z,27.80
2018-05-07T13:09:15.207Z,28.32
2018-05-07T13:11:45.012Z,28.46
2018-05-07T13:14:14.054Z,28.31
2018-05-07T13:16:46.072Z,28.47
2018-05-07T13:19:15.011Z,28.49
2018-05-07T13:21:43.260Z,29.53
2018-05-07T13:24:12.280Z,29.55
2018-05-07T13:26:42.563Z,28.36
2018-05-07T13:29:11.584Z,29.19
2018-05-07T13:31:39.832Z,28.96
2018-05-07T13:34:08.849Z,29.46
2018-05-07T13:36:37.097Z,28.78
2018-05-07T13:39:07.037Z,29.79
2018-05-07T13:41:35.915Z,28.95
2018-05-07T13:44:04.922Z,28.72
2018-05-07T13:46:33.170Z,29.53
2018-05-07T13:49:01.422Z,29.08
2018-05-07T13:51:30.273Z,29.28
2018-05-07T13:53:58.520Z,29.98
2018-05-07T13:56:27.540Z,28.48
2018-05-07T13:58:55.784Z,30.15
2018-05-07T14:01:25.399Z,30.32
2018-05-07T14:03:55.477Z,28.70
2018-05-07T14:06:24.503Z,29.02
2018-05-07T14:08:53.525Z,30.30
2018-05-07T14:11:21.777Z,30.19
2018-05-07T14:13:50.794Z,29.71
2018-05-07T14:16:19.673Z,29.21
2018-05-07T14:18:49.414Z,30.80
2018-05-07T14:21:18.850Z,30.08
2018-05-07T14:23:47.084Z,29.18
2018-05-07T14:26:15.374Z,30.25
2018-05-07T14:28:44.351Z,30.46
2018-05-07T14:31:12.597Z,30.31
2018-05-07T14:33:42.162Z,29.48
2018-05-07T14:36:11.921Z,30.50
2018-05-07T14:38:40.998Z,30.24
2018-05-07T14:41:09.180Z,31.19
2018-05-07T14:43:39.136Z,31.22
2018-05-07T14:46:07.421Z,31.02
2018-05-07T14:48:35.678Z,29.90
2018-05-07T14:51:05.809Z,30.23
2018-05-07T14:56:06.981Z,30.56
2018-05-07T14:58:36.285Z,31.18
2018-05-07T15:01:04.494Z,30.35
2018-05-07T15:03:33.509Z,29.87
2018-05-07T15:06:01.857Z,30.42
2018-05-07T15:08:30.718Z,29.21
2018-05-07T15:10:59.801Z,30.04
2018-05-07T15:13:29.570Z,29.72
2018-05-07T15:15:58.797Z,30.54
2018-05-07T15:18:27.037Z,29.34
2018-05-07T15:20:57.175Z,30.71
2018-05-07T15:23:25.433Z,31.31
2018-05-07T15:25:55.061Z,30.61
2018-05-07T15:28:23.309Z,30.16
2018-05-07T15:30:51.557Z,31.10
2018-05-07T15:33:19.800Z,31.53
2018-05-07T15:35:48.682Z,30.92
2018-05-07T15:38:18.091Z,30.40
2018-05-07T15:40:46.336Z,30.11
2018-05-07T15:43:15.568Z,30.34
2018-05-07T15:45:43.904Z,30.18
2018-05-07T15:48:12.147Z,30.29
2018-05-07T15:50:40.400Z,29.88
2018-05-07T15:53:08.765Z,29.75
2018-05-07T15:55:37.010Z,30.68
2018-05-07T15:58:06.851Z,30.59
2018-05-07T16:00:35.118Z,30.60
2018-05-07T16:03:03.488Z,30.21
2018-05-07T16:05:32.385Z,29.46
2018-05-07T16:08:03.283Z,30.80
2018-05-07T16:10:32.629Z,30.39
2018-05-07T16:13:01.104Z,30.39
2018-05-07T16:15:30.127Z,30.60
2018-05-07T16:17:58.381Z,30.65
2018-05-07T16:20:29.276Z,31.44
2018-05-07T16:22:57.509Z,32.37
2018-05-07T16:25:25.754Z,31.45
2018-05-07T16:27:54.765Z,30.24
2018-05-07T16:30:23.522Z,31.16
2018-05-07T16:32:51.766Z,30.29
2018-05-07T16:35:20.010Z,30.58
2018-05-07T16:37:51.597Z,30.24
2018-05-07T16:40:19.859Z,31.38
2018-05-07T16:42:48.853Z,31.05
2018-05-07T16:45:17.813Z,31.35
2018-05-07T16:47:46.083Z,30.24
2018-05-07T16:50:14.331Z,30.74
2018-05-07T16:52:43.348Z,30.47
2018-05-07T16:55:12.505Z,31.16
2018-05-07T16:57:40.766Z,30.83
2018-05-07T17:00:09.009Z,30.61
2018-05-07T17:02:37.270Z,31.07
2018-05-07T17:05:06.282Z,30.10
2018-05-07T17:07:34.531Z,29.82
2018-05-07T17:10:04.260Z,30.29
2018-05-07T17:12:33.707Z,29.51
2018-05-07T17:15:01.958Z,30.51
2018-05-07T17:17:30.218Z,30.60
2018-05-07T17:19:58.480Z,29.86
2018-05-07T17:22:26.725Z,29.02
2018-05-07T17:24:55.571Z,29.34
2018-05-07T17:27:25.085Z,29.06
2018-05-07T17:29:53.339Z,28.71
2018-05-07T17:32:21.589Z,27.07
2018-05-07T17:34:50.617Z,25.78
2018-05-07T17:37:18.873Z,24.92
2018-05-07T17:39:47.852Z,24.57
2018-05-07T17:42:16.862Z,24.24
2018-05-07T17:45:04.619Z,24.33
2018-05-07T17:47:50.637Z,24.00
2018-05-07T17:50:18.900Z,23.92
2018-05-07T17:52:47.151Z,23.80
2018-05-07T17:55:15.406Z,23.62
2018-05-07T17:57:44.405Z,23.61
2018-05-07T18:00:12.667Z,23.33
2018-05-07T18:02:41.689Z,23.39
2018-05-07T18:05:09.939Z,23.18
2018-05-07T18:07:38.956Z,23.26
2018-05-07T18:10:09.416Z,23.08
2018-05-07T18:12:37.662Z,23.04
2018-05-07T18:15:05.920Z,22.79
2018-05-07T18:17:34.172Z,22.68
2018-05-07T18:20:03.194Z,22.53
2018-05-07T18:22:32.129Z,22.44
2018-05-07T18:25:00.390Z,22.29
2018-05-07T18:27:28.642Z,22.17
2018-05-07T18:29:59.118Z,22.04
2018-05-07T18:32:28.208Z,22.00
2018-05-07T18:34:57.145Z,21.86
2018-05-07T18:37:26.626Z,21.83
2018-05-07T18:39:56.662Z,21.71
2018-05-07T18:42:25.589Z,21.63
2018-05-07T18:44:53.841Z,21.58
2018-05-07T18:47:22.108Z,21.40
2018-05-07T18:49:50.370Z,21.48
2018-05-07T18:52:19.377Z,21.39
2018-05-07T18:54:47.694Z,21.33
2018-05-07T18:57:15.951Z,21.26
2018-05-07T18:59:45.234Z,21.23
2018-05-07T19:02:14.946Z,21.23
2018-05-07T19:04:43.894Z,21.20
2018-05-07T19:07:12.329Z,21.27
2018-05-07T19:09:42.321Z,21.26
2018-05-07T19:12:11.334Z,21.22
2018-05-07T19:14:39.581Z,21.11
2018-05-07T19:17:09.321Z,21.02
2018-05-07T19:19:37.578Z,20.96
2018-05-07T19:22:05.825Z,20.86
2018-05-07T19:24:34.845Z,20.72
2018-05-07T19:27:03.105Z,20.66
2018-05-07T19:29:32.354Z,20.56
2018-05-07T19:32:01.565Z,20.38
2018-05-07T19:34:29.818Z,20.35
2018-05-07T19:36:58.074Z,20.35
2018-05-07T19:39:26.327Z,20.24
2018-05-07T19:41:55.342Z,20.17
2018-05-07T19:44:23.593Z,20.14
2018-05-07T19:46:51.901Z,20.08
2018-05-07T19:49:20.173Z,19.92
2018-05-07T19:51:49.178Z,19.86
2018-05-07T19:54:17.424Z,19.73
2018-05-07T19:56:46.472Z,19.69
2018-05-07T19:59:14.711Z,19.66
2018-05-07T20:01:42.969Z,19.61
2018-05-07T20:04:11.995Z,19.50
2018-05-07T20:06:40.253Z,19.48
2018-05-07T20:09:09.078Z,19.43
2018-05-07T20:11:37.333Z,19.38
2018-05-07T20:14:05.581Z,19.25
2018-05-07T20:16:34.607Z,19.24
2018-05-07T20:19:02.859Z,19.19
2018-05-07T20:21:31.125Z,19.24
2018-05-07T20:24:00.135Z,19.19
2018-05-07T20:26:28.393Z,19.09
2018-05-07T20:28:56.640Z,19.05
2018-05-07T20:31:24.896Z,18.95
2018-05-07T20:33:53.836Z,18.94
2018-05-07T20:36:22.857Z,18.89
2018-05-07T20:38:51.113Z,18.85
2018-05-07T20:41:19.929Z,18.82
2018-05-07T20:43:48.312Z,18.90
2018-05-07T20:46:16.567Z,18.76
2018-05-07T20:48:44.812Z,18.67
2018-05-07T20:51:13.837Z,18.66
2018-05-07T20:53:42.093Z,18.61
2018-05-07T20:56:11.105Z,18.60
2018-05-07T20:58:39.353Z,18.50
2018-05-07T21:01:08.382Z,18.39
2018-05-07T21:03:36.635Z,18.39
2018-05-07T21:06:04.879Z,18.30
2018-05-07T21:08:33.139Z,18.28
2018-05-07T21:11:01.397Z,18.21
2018-05-07T21:13:29.662Z,18.10
2018-05-07T21:15:57.917Z,18.04
2018-05-07T21:18:26.183Z,17.96
2018-05-07T21:20:56.329Z,17.86
2018-05-07T21:23:24.583Z,17.83
2018-05-07T21:25:52.841Z,17.77
2018-05-07T21:28:21.863Z,17.65
2018-05-07T21:30:50.112Z,17.48
2018-05-07T21:33:19.693Z,17.45
2018-05-07T21:35:47.985Z,17.37
2018-05-07T21:38:16.817Z,17.33
2018-05-07T21:40:45.576Z,17.19
2018-05-07T21:43:14.580Z,16.99
2018-05-07T21:45:42.828Z,16.85
2018-05-07T21:48:11.854Z,16.64
2018-05-07T21:50:40.111Z,16.60
2018-05-07T21:53:09.859Z,16.51
2018-05-07T21:55:38.110Z,16.45
2018-05-07T21:58:06.377Z,16.49
2018-05-07T22:00:36.223Z,16.71
2018-05-07T22:03:05.467Z,16.85
2018-05-07T22:05:34.761Z,16.93
2018-05-07T22:08:04.232Z,16.95
2018-05-07T22:10:32.471Z,16.95
2018-05-07T22:13:01.653Z,16.97
2018-05-07T22:15:33.667Z,16.87
2018-05-07T22:18:02.853Z,16.77
2018-05-07T22:20:31.855Z,16.70
2018-05-07T22:23:00.391Z,16.85
2018-05-07T22:25:29.412Z,16.75
2018-05-07T22:27:57.659Z,16.68
2018-05-07T22:30:26.687Z,16.64
2018-05-07T22:32:55.566Z,16.60
2018-05-07T22:35:24.598Z,16.51
2018-05-07T22:37:52.836Z,16.43
2018-05-07T22:40:21.099Z,16.40
2018-05-07T22:42:49.585Z,16.30
2018-05-07T22:45:19.051Z,16.23
2018-05-07T22:47:50.827Z,16.14
2018-05-07T22:50:19.852Z,16.12
2018-05-07T22:52:48.114Z,16.06
2018-05-07T22:55:21.951Z,16.04
2018-05-07T22:57:50.211Z,16.05
2018-05-07T23:00:19.670Z,16.06
2018-05-07T23:02:48.626Z,16.07
2018-05-07T23:05:17.425Z,16.07
2018-05-07T23:07:45.674Z,16.09
2018-05-07T23:10:13.933Z,16.08
2018-05-07T23:12:42.190Z,16.01
2018-05-07T23:15:12.098Z,16.15
2018-05-07T23:17:41.125Z,16.12
2018-05-07T23:20:09.374Z,16.12
2018-05-07T23:22:38.406Z,16.18
2018-05-07T23:25:06.652Z,16.10
2018-05-07T23:27:34.913Z,16.02
2018-05-07T23:30:03.936Z,15.90
2018-05-07T23:32:32.196Z,15.90
2018-05-07T23:35:00.448Z,15.92
2018-05-07T23:37:29.352Z,15.94
2018-05-07T23:39:58.373Z,15.89
2018-05-07T23:42:26.638Z,15.89
2018-05-07T23:44:54.893Z,15.88
2018-05-07T23:47:24.149Z,15.81
2018-05-07T23:49:52.403Z,15.96
2018-05-07T23:52:20.661Z,15.93
2018-05-07T23:54:48.914Z,15.93
2018-05-07T23:57:18.964Z,15.86
2018-05-07T23:59:47.785Z,15.69
